Time;durP1;ratioP1;P1;durP2;ratioP2;P2;SDS_P1;SDS_P2;PMS_P1;PMS_P2;Temp;Humidity;BMP_temperature;BMP_pressure;BME280_temperature;BME280_humidity;BME280_pressure;Samples;Min_cycle;Max_cycle;Signal;HPM_P1;HPM_P2
2023/03/30 00:00:53;;;;;;;;;;;14.20;77.00;;;13.42;60.54;99707.16;5020597;28;19978;-87
2023/03/30 00:03:21;;;;;;;;;;;14.20;77.30;;;13.40;60.29;99705.53;5031986;28;20408;-87
2023/03/30 00:05:48;;;;;;;;;;;14.20;77.00;;;13.42;60.55;99691.06;5041675;28;20472;-87
2023/03/30 00:08:17;;;;;;;;;;;14.20;77.30;;;13.43;60.41;99698.06;5038208;28;20407;-88
2023/03/30 00:10:44;;;;;;;;;;;14.30;77.10;;;13.42;60.01;99688.41;5037962;28;19967;-86
2023/03/30 00:13:11;;;;;;;;;;;14.20;76.60;;;13.41;60.10;99684.91;5052821;28;19936;-86
2023/03/30 00:15:41;;;;;;;;;;;14.20;76.60;;;13.40;60.00;99665.34;5036341;28;19925;-88
2023/03/30 00:18:08;;;;;;;;;;;14.20;76.80;;;13.43;60.08;99657.91;5052842;28;20359;-85
2023/03/30 00:20:36;;;;;;;;;;;14.20;76.50;;;13.41;60.24;99668.84;5052532;28;20027;-87
2023/03/30 00:23:03;;;;;;;;;;;14.20;76.80;;;13.42;59.90;99666.97;5052550;28;19928;-87
2023/03/30 00:25:30;;;;;;;;;;;14.20;76.30;;;13.45;59.69;99663.81;5043766;28;19936;-87
2023/03/30 00:27:57;;;;;;;;;;;14.20;76.20;;;13.44;59.61;99654.97;5052155;28;19925;-87
2023/03/30 00:30:24;;;;;;;;;;;14.20;76.20;;;13.45;59.64;99658.44;5052429;28;19975;-87
2023/03/30 00:32:52;;;;;;;;;;;14.20;76.10;;;13.46;59.68;99646.66;5045071;28;19928;-87
2023/03/30 00:35:19;;;;;;;;;;;14.20;76.00;;;13.47;59.60;99650.97;5023288;28;20306;-90
2023/03/30 00:37:48;;;;;;;;;;;14.20;76.10;;;13.46;59.54;99650.16;5050375;28;20015;-88
2023/03/30 00:40:21;;;;;;;;;;;14.20;75.80;;;13.47;59.46;99653.63;5026818;28;20304;-88
2023/03/30 00:42:48;;;;;;;;;;;14.20;76.00;;;13.47;59.50;99650.97;5026379;28;20385;-87
2023/03/30 00:45:22;;;;;;;;;;;14.20;76.00;;;13.48;59.45;99641.88;5046844;28;19928;-85
2023/03/30 00:47:59;;;;;;;;;;;14.20;76.10;;;13.46;59.52;99633.28;5044145;28;19970;-87
2023/03/30 00:50:33;;;;;;;;;;;14.20;75.80;;;13.45;59.03;99648.53;5027369;28;19928;-86
2023/03/30 00:53:03;;;;;;;;;;;14.20;75.60;;;13.45;59.32;99650.41;5024512;28;19936;-87
2023/03/30 00:55:31;;;;;;;;;;;14.20;75.60;;;13.44;58.86;99646.13;5032085;28;19929;-88
2023/03/30 00:57:59;;;;;;;;;;;14.20;75.30;;;13.44;58.64;99640.75;5033273;28;19925;-87
2023/03/30 01:00:26;;;;;;;;;;;14.20;75.20;;;13.44;58.20;99632.72;5046678;28;19921;-86
2023/03/30 01:02:59;;;;;;;;;;;14.20;74.60;;;13.45;58.41;99626.31;5045401;28;19960;-89
2023/03/30 01:05:27;;;;;;;;;;;14.20;74.70;;;13.43;58.57;99628.44;5050394;28;20540;-89
2023/03/30 01:07:56;;;;;;;;;;;14.20;75.00;;;13.44;58.34;99624.69;5027503;28;19921;-85
2023/03/30 01:10:24;;;;;;;;;;;14.20;74.50;;;13.44;58.50;99611.31;5050052;28;19927;-86
2023/03/30 01:12:51;;;;;;;;;;;14.20;75.00;;;13.41;58.41;99612.59;5032612;28;19924;-87
2023/03/30 01:15:19;;;;;;;;;;;14.20;74.90;;;13.42;58.30;99611.56;5033329;28;19921;-88
2023/03/30 01:17:56;;;;;;;;;;;14.20;74.70;;;13.39;58.00;99615.53;5050336;28;19964;-89
2023/03/30 01:21:12;;;;;;;;;;;14.20;74.50;;;13.39;57.80;99612.84;5046265;28;19920;-88
2023/03/30 01:26:49;;;;;;;;;;;14.20;73.70;;;13.45;58.10;99612.91;5107621;27;19916;-88
2023/03/30 01:29:28;;;;;;;;;;;14.20;74.50;;;13.45;57.50;99602.19;5097014;28;20015;-87
2023/03/30 01:32:15;;;;;;;;;;;14.20;73.80;;;13.48;57.80;99602.50;5079272;28;20019;-87
2023/03/30 01:34:57;;;;;;;;;;;14.20;74.00;;;13.52;57.46;99600.16;5096180;28;19929;-86
2023/03/30 01:37:50;;;;;;;;;;;14.30;74.00;;;13.53;57.32;99596.41;5081146;28;19928;-88
2023/03/30 01:40:20;;;;;;;;;;;14.30;73.60;;;13.56;57.34;99595.88;5079574;28;20392;-89
2023/03/30 01:42:55;;;;;;;;;;;14.30;73.40;;;13.58;57.36;99607.16;5083722;28;19974;-87
2023/03/30 01:45:28;;;;;;;;;;;14.30;73.30;;;13.60;56.97;99607.72;5084404;28;20374;-90
2023/03/30 01:47:58;;;;;;;;;;;14.40;72.90;;;13.61;57.34;99603.97;5080096;28;20009;-88
2023/03/30 01:50:30;;;;;;;;;;;14.40;73.20;;;13.62;57.27;99608.28;5082861;28;20461;-87
2023/03/30 01:53:00;;;;;;;;;;;14.40;73.20;;;13.62;56.96;99605.59;5077161;28;19929;-89
2023/03/30 01:55:33;;;;;;;;;;;14.40;72.70;;;13.67;56.97;99612.91;5085086;28;19940;-88
2023/03/30 01:58:03;;;;;;;;;;;14.40;72.50;;;13.68;56.75;99599.22;5083029;28;20026;-90
2023/03/30 02:00:30;;;;;;;;;;;14.50;72.50;;;13.70;56.04;99596.28;5082485;28;19933;-86
2023/03/30 02:03:01;;;;;;;;;;;14.50;72.50;;;13.72;56.74;99605.72;5078762;28;19928;-89
2023/03/30 02:05:30;;;;;;;;;;;14.50;72.60;;;13.72;56.23;99599.53;5074974;28;19928;-90
2023/03/30 02:08:01;;;;;;;;;;;14.50;72.60;;;13.75;56.56;99596.34;5077369;28;19928;-87
2023/03/30 02:10:33;;;;;;;;;;;14.50;72.50;;;13.75;56.41;99591.78;5081672;28;19932;-86
2023/03/30 02:13:01;;;;;;;;;;;14.50;72.70;;;13.77;56.33;99594.22;5079844;28;20069;-89
2023/03/30 02:15:32;;;;;;;;;;;14.60;72.50;;;13.80;56.14;99593.72;5085848;28;19932;-88
2023/03/30 02:17:59;;;;;;;;;;;14.60;72.80;;;13.81;55.97;99590.78;5092316;28;20611;-88
2023/03/30 02:20:27;;;;;;;;;;;14.60;72.30;;;13.82;56.35;99583.56;5085375;28;19928;-88
2023/03/30 02:22:56;;;;;;;;;;;14.60;72.30;;;13.84;55.90;99571.50;5075734;28;19924;-87
2023/03/30 02:25:23;;;;;;;;;;;14.60;72.10;;;13.86;56.23;99573.94;5085237;28;19928;-88
2023/03/30 02:27:51;;;;;;;;;;;14.70;72.40;;;13.86;55.97;99573.94;5084499;28;19929;-88
2023/03/30 02:30:19;;;;;;;;;;;14.70;72.30;;;13.89;55.71;99579.59;5089241;28;19958;-91
2023/03/30 02:32:49;;;;;;;;;;;14.70;71.80;;;13.90;55.86;99580.41;5086554;28;20483;-86
2023/03/30 02:35:29;;;;;;;;;;;14.70;72.30;;;13.91;55.83;99574.81;5065395;28;20031;-87
2023/03/30 02:38:25;;;;;;;;;;;14.70;71.90;;;13.91;56.08;99572.13;5070926;28;19928;-85
2023/03/30 02:40:57;;;;;;;;;;;14.70;72.00;;;13.91;55.94;99558.72;5099146;28;19932;-87
2023/03/30 02:43:38;;;;;;;;;;;14.70;72.30;;;13.91;55.80;99565.94;5077503;28;20011;-89
2023/03/30 02:46:28;;;;;;;;;;;14.70;71.60;;;13.91;55.54;99550.69;5062749;28;19947;-91
2023/03/30 02:49:02;;;;;;;;;;;14.70;71.90;;;13.92;55.82;99543.44;5069228;28;19928;-87
2023/03/30 02:51:40;;;;;;;;;;;14.70;71.90;;;13.90;55.86;99543.66;5061181;28;19986;-87
2023/03/30 02:54:21;;;;;;;;;;;14.90;72.30;;;13.89;55.82;99543.94;5063443;28;20385;-86
2023/03/30 02:57:10;;;;;;;;;;;14.70;72.00;;;13.89;55.60;99531.34;5073354;28;20427;-88
2023/03/30 02:59:46;;;;;;;;;;;14.70;71.90;;;13.90;55.88;99529.47;5064493;28;19932;-88
2023/03/30 03:02:18;;;;;;;;;;;14.70;72.10;;;13.88;55.81;99524.38;5066692;28;19947;-87
2023/03/30 03:04:50;;;;;;;;;;;14.70;72.30;;;13.86;56.09;99525.72;5068789;28;19925;-89
2023/03/30 03:07:32;;;;;;;;;;;14.70;72.20;;;13.84;55.99;99525.13;5063066;28;20293;-89
2023/03/30 03:10:00;;;;;;;;;;;14.70;72.20;;;13.83;55.82;99534.25;5096693;28;19924;-89
2023/03/30 03:12:28;;;;;;;;;;;14.60;71.80;;;13.85;55.82;99529.41;5069253;28;20031;-86
2023/03/30 03:14:57;;;;;;;;;;;14.60;71.70;;;13.85;55.99;99522.19;5070943;28;19924;-87
2023/03/30 03:17:28;;;;;;;;;;;14.60;72.10;;;13.85;56.10;99524.88;5060535;28;19930;-88
2023/03/30 03:19:55;;;;;;;;;;;14.60;71.80;;;13.86;56.18;99528.38;5061303;28;19924;-86
2023/03/30 03:22:23;;;;;;;;;;;14.60;72.00;;;13.86;56.33;99533.75;5067254;28;19924;-90
2023/03/30 03:24:51;;;;;;;;;;;14.60;72.00;;;13.84;56.16;99538.53;5058713;28;20388;-86
2023/03/30 03:27:18;;;;;;;;;;;14.60;71.90;;;13.85;56.06;99532.91;5070353;28;20422;-87
2023/03/30 03:30:16;;;;;;;;;;;14.60;72.30;;;13.86;56.29;99533.75;5060951;28;20321;-87
2023/03/30 03:32:50;;;;;;;;;;;14.60;72.70;;;13.86;56.01;99537.22;5067616;28;20481;-86
2023/03/30 03:35:18;;;;;;;;;;;14.70;72.30;;;13.90;56.23;99540.19;5064848;28;20027;-91
2023/03/30 03:37:45;;;;;;;;;;;14.70;72.50;;;13.95;56.02;99539.41;5065964;28;19929;-87
2023/03/30 03:40:13;;;;;;;;;;;14.70;72.20;;;13.94;56.25;99527.91;5072215;28;20646;-87
2023/03/30 03:42:40;;;;;;;;;;;14.70;72.30;;;13.96;56.04;99527.63;5061859;28;20529;-88
2023/03/30 03:45:11;;;;;;;;;;;14.70;72.30;;;13.98;55.97;99533.56;5065131;28;19932;-86
2023/03/30 03:47:52;;;;;;;;;;;14.80;72.20;;;13.99;56.36;99538.66;5061589;28;19925;-90
2023/03/30 03:50:25;;;;;;;;;;;14.80;72.40;;;14.00;56.54;99537.59;5068164;28;20011;-87
2023/03/30 03:52:52;;;;;;;;;;;14.80;72.60;;;14.01;56.42;99533.06;5076315;28;20406;-87
2023/03/30 03:55:19;;;;;;;;;;;14.80;72.20;;;14.01;56.38;99525.00;5068516;28;20319;-87
2023/03/30 03:57:46;;;;;;;;;;;14.80;72.50;;;14.00;56.53;99523.38;5069048;28;19928;-86
2023/03/30 04:00:16;;;;;;;;;;;14.80;72.30;;;13.99;56.48;99527.13;5068388;28;19925;-86
2023/03/30 04:02:46;;;;;;;;;;;14.80;72.30;;;13.99;56.46;99514.53;5068374;28;19930;-87
2023/03/30 04:05:15;;;;;;;;;;;14.80;72.30;;;13.98;56.62;99512.13;5067600;28;19924;-90
2023/03/30 04:07:45;;;;;;;;;;;14.80;72.50;;;13.99;56.63;99508.34;5068089;28;19935;-87
2023/03/30 04:10:13;;;;;;;;;;;14.80;72.60;;;13.98;56.56;99518.28;5068703;28;20577;-87
2023/03/30 04:12:50;;;;;;;;;;;14.80;72.60;;;14.00;56.47;99512.66;5063380;28;20290;-80
2023/03/30 04:15:45;;;;;;;;;;;14.70;72.70;;;14.01;56.34;99507.06;5063702;28;19935;-79
2023/03/30 04:18:32;;;;;;;;;;;14.80;72.30;;;14.03;56.32;99498.75;5048943;28;19932;-81
2023/03/30 04:21:19;;;;;;;;;;;14.80;72.30;;;14.03;56.65;99496.88;5055211;28;20025;-81
2023/03/30 04:23:59;;;;;;;;;;;14.80;72.50;;;14.04;56.65;99489.63;5068817;28;20392;-79
2023/03/30 04:26:58;;;;;;;;;;;14.80;72.80;;;14.05;56.67;99499.28;5088854;28;20022;-78
2023/03/30 04:29:28;;;;;;;;;;;14.80;72.70;;;14.05;56.53;99494.72;5079266;28;19928;-80
2023/03/30 04:32:19;;;;;;;;;;;14.80;72.70;;;14.08;56.57;99485.38;5047283;28;20071;-78
2023/03/30 04:35:02;;;;;;;;;;;14.90;72.90;;;14.09;56.85;99486.97;5048547;28;19924;-76
2023/03/30 04:37:30;;;;;;;;;;;14.90;72.90;;;14.10;57.03;99483.22;5047774;28;20436;-77
2023/03/30 04:40:16;;;;;;;;;;;14.90;73.10;;;14.10;56.82;99485.91;5035649;28;20146;-77
2023/03/30 04:43:02;;;;;;;;;;;14.90;73.00;;;14.08;56.57;99480.00;5037644;28;19929;-75
2023/03/30 04:45:55;;;;;;;;;;;14.90;72.60;;;14.09;56.73;99481.63;5024515;28;19929;-78
2023/03/30 04:48:41;;;;;;;;;;;14.90;72.80;;;14.06;56.85;99477.59;5019329;28;19932;-76
2023/03/30 04:51:36;;;;;;;;;;;15.00;72.70;;;14.06;56.93;99482.97;5008338;28;19925;-79
2023/03/30 04:54:33;;;;;;;;;;;14.90;72.70;;;14.07;57.02;99483.75;5020758;28;20380;-75
2023/03/30 04:57:19;;;;;;;;;;;14.90;72.90;;;14.05;57.08;99486.69;5022158;28;19932;-76
2023/03/30 05:00:20;;;;;;;;;;;14.90;73.20;;;14.05;57.11;99493.91;5021245;28;20470;-79
2023/03/30 05:03:05;;;;;;;;;;;14.80;73.10;;;14.05;57.30;99493.91;5020901;28;19944;-77
2023/03/30 05:05:53;;;;;;;;;;;14.80;73.30;;;14.04;57.39;99490.44;5026787;28;19929;-75
2023/03/30 05:08:38;;;;;;;;;;;14.80;73.30;;;14.05;57.45;99497.41;5021314;28;20067;-77
2023/03/30 05:11:26;;;;;;;;;;;14.80;73.40;;;14.05;57.50;99486.69;5020960;28;20414;-76
2023/03/30 05:13:59;;;;;;;;;;;14.80;73.70;;;14.06;57.86;99487.50;5039220;28;20419;-79
2023/03/30 05:16:35;;;;;;;;;;;14.80;74.10;;;14.04;57.60;99492.31;5020771;28;20310;-76
2023/03/30 05:19:26;;;;;;;;;;;14.80;73.70;;;14.04;57.81;99487.75;5023449;28;19932;-76
2023/03/30 05:22:15;;;;;;;;;;;14.80;73.90;;;14.05;57.71;99481.31;5018993;28;19933;-76
2023/03/30 05:24:50;;;;;;;;;;;14.80;73.80;;;14.04;57.60;99478.91;5033872;28;20019;-77
2023/03/30 05:27:37;;;;;;;;;;;14.80;73.80;;;14.07;57.77;99479.19;5023961;28;19932;-79
2023/03/30 05:30:27;;;;;;;;;;;14.80;73.90;;;14.10;57.54;99484.06;5027306;28;19973;-78
2023/03/30 05:33:23;;;;;;;;;;;14.90;73.70;;;14.11;57.50;99479.50;5022666;28;19929;-77
2023/03/30 05:36:16;;;;;;;;;;;14.90;73.90;;;14.12;57.55;99489.16;5024101;28;19952;-78
2023/03/30 05:39:05;;;;;;;;;;;14.90;73.90;;;14.12;57.79;99494.53;5022271;28;19933;-77
2023/03/30 05:42:00;;;;;;;;;;;14.90;74.00;;;14.11;58.02;99499.06;5033445;28;19933;-77
2023/03/30 05:44:41;;;;;;;;;;;14.90;74.20;;;14.10;58.41;99504.69;5022682;28;20055;-76
2023/03/30 05:47:27;;;;;;;;;;;14.90;74.50;;;14.09;58.36;99500.38;5023993;28;20392;-79
2023/03/30 05:50:08;;;;;;;;;;;14.90;74.60;;;14.10;58.21;99502.84;5039796;28;20313;-76
2023/03/30 05:52:46;;;;;;;;;;;14.90;74.50;;;14.10;58.45;99500.16;5024648;28;20294;-76
2023/03/30 05:55:26;;;;;;;;;;;14.90;74.60;;;14.11;58.60;99503.63;5042291;28;20324;-78
2023/03/30 05:58:19;;;;;;;;;;;14.90;74.80;;;14.09;58.86;99501.19;5026296;28;20313;-76
2023/03/30 06:01:08;;;;;;;;;;;14.90;75.10;;;14.08;58.46;99501.47;5026185;28;19944;-76
2023/03/30 06:03:40;;;;;;;;;;;14.80;74.70;;;14.08;58.79;99506.81;5025328;28;20023;-75
2023/03/30 06:06:09;;;;;;;;;;;14.90;75.20;;;14.09;58.72;99513.78;5043056;28;20008;-77
2023/03/30 06:08:38;;;;;;;;;;;14.90;74.90;;;14.10;58.53;99524.28;5039892;28;19947;-75
2023/03/30 06:11:07;;;;;;;;;;;14.90;75.00;;;14.10;58.26;99518.09;5027051;28;19935;-75
2023/03/30 06:13:44;;;;;;;;;;;14.90;74.70;;;14.08;58.44;99509.50;5029748;28;19936;-77
2023/03/30 06:16:13;;;;;;;;;;;14.90;74.80;;;14.08;58.67;99517.53;5028116;28;19929;-77
2023/03/30 06:18:40;;;;;;;;;;;14.90;75.00;;;14.06;58.57;99517.81;5047917;28;19929;-75
2023/03/30 06:21:11;;;;;;;;;;;14.90;74.80;;;14.07;58.30;99519.41;5031404;28;19929;-75
2023/03/30 06:23:52;;;;;;;;;;;14.90;74.50;;;14.09;58.39;99528.00;5028914;28;19932;-76
2023/03/30 06:26:22;;;;;;;;;;;14.90;74.70;;;14.09;58.63;99525.31;5047022;28;20052;-76
2023/03/30 06:28:49;;;;;;;;;;;14.90;75.00;;;14.09;58.55;99519.16;5029502;28;19933;-77
2023/03/30 06:31:18;;;;;;;;;;;14.90;75.00;;;14.09;58.57;99522.63;5029813;28;19929;-77
2023/03/30 06:33:49;;;;;;;;;;;14.90;74.90;;;14.11;58.82;99517.84;5030033;28;19983;-78
2023/03/30 06:36:16;;;;;;;;;;;14.90;75.20;;;14.11;58.42;99517.03;5029927;28;19929;-76
2023/03/30 06:38:45;;;;;;;;;;;15.00;74.80;;;14.11;58.67;99509.00;5046135;28;19925;-75
2023/03/30 06:41:15;;;;;;;;;;;14.90;75.00;;;14.12;58.49;99506.03;5044850;28;19925;-76
2023/03/30 06:43:44;;;;;;;;;;;14.90;74.80;;;14.14;58.39;99506.59;5047466;28;19929;-76
2023/03/30 06:46:16;;;;;;;;;;;14.90;74.90;;;14.17;58.78;99511.44;5030586;28;19975;-75
2023/03/30 06:48:50;;;;;;;;;;;14.90;75.20;;;14.22;59.24;99513.34;5029706;28;19957;-76
2023/03/30 06:51:36;;;;;;;;;;;15.00;75.60;;;14.27;59.22;99526.78;5034129;28;20396;-75
2023/03/30 06:54:05;;;;;;;;;;;15.00;75.40;;;14.29;58.91;99519.28;5029564;28;19934;-77
2023/03/30 06:56:32;;;;;;;;;;;15.00;75.30;;;14.33;58.65;99522.25;5029630;28;19925;-76
2023/03/30 06:59:10;;;;;;;;;;;15.10;74.80;;;14.35;59.00;99520.94;5029437;28;20095;-75
2023/03/30 07:02:13;;;;;;;;;;;15.20;75.40;;;14.36;58.72;99522.56;5008801;28;19926;-76
2023/03/30 07:05:02;;;;;;;;;;;15.10;74.90;;;14.37;58.41;99534.09;5030387;28;19937;-78
2023/03/30 07:07:36;;;;;;;;;;;15.20;74.70;;;14.36;58.47;99522.56;5029439;28;19956;-76
2023/03/30 07:10:09;;;;;;;;;;;15.20;74.70;;;14.37;58.37;99526.84;5045834;28;20023;-78
2023/03/30 07:12:36;;;;;;;;;;;15.20;74.70;;;14.38;58.58;99527.66;5029112;28;20015;-77
2023/03/30 07:15:03;;;;;;;;;;;15.20;74.70;;;14.38;58.09;99528.47;5045552;28;19971;-78
2023/03/30 07:17:30;;;;;;;;;;;15.20;74.10;;;14.39;58.13;99526.59;5027294;28;19987;-77
2023/03/30 07:19:57;;;;;;;;;;;15.20;74.30;;;14.40;58.44;99525.53;5046144;28;20397;-78
2023/03/30 07:22:26;;;;;;;;;;;15.20;74.50;;;14.41;58.62;99527.16;5029797;28;20401;-78
2023/03/30 07:24:54;;;;;;;;;;;15.20;75.00;;;14.40;58.42;99529.03;5046637;28;19925;-77
2023/03/30 07:27:23;;;;;;;;;;;15.20;74.70;;;14.39;58.23;99535.44;5045831;28;19928;-77
2023/03/30 07:29:51;;;;;;;;;;;15.20;74.50;;;14.41;58.43;99540.56;5046242;28;19926;-77
2023/03/30 07:32:19;;;;;;;;;;;15.20;74.80;;;14.38;58.57;99536.50;5031102;28;19925;-77
2023/03/30 07:34:46;;;;;;;;;;;15.20;75.00;;;14.37;58.05;99547.50;5046593;28;19925;-77
2023/03/30 07:37:15;;;;;;;;;;;15.20;74.30;;;14.36;58.53;99552.06;5039148;28;19936;-77
2023/03/30 07:39:44;;;;;;;;;;;15.20;74.60;;;14.37;58.40;99550.19;5046045;28;20389;-77
2023/03/30 07:42:11;;;;;;;;;;;15.10;74.70;;;14.35;58.33;99550.47;5045616;28;19960;-76
2023/03/30 07:44:38;;;;;;;;;;;15.20;74.50;;;14.31;58.43;99544.00;5045848;28;20349;-79
2023/03/30 07:47:08;;;;;;;;;;;15.10;74.50;;;14.31;58.80;99553.91;5045291;28;19979;-79
2023/03/30 07:49:36;;;;;;;;;;;15.10;75.10;;;14.31;58.93;99553.91;5045045;28;19929;-76
2023/03/30 07:52:03;;;;;;;;;;;15.10;75.20;;;14.34;59.51;99562.22;5029169;28;19925;-78
2023/03/30 07:54:42;;;;;;;;;;;15.20;75.80;;;14.36;59.07;99562.00;5045176;28;19933;-76
2023/03/30 07:57:17;;;;;;;;;;;15.20;75.20;;;14.38;59.14;99578.63;5028445;28;19939;-79
2023/03/30 07:59:44;;;;;;;;;;;15.20;75.10;;;14.37;63.46;99585.88;5029011;28;19926;-77
2023/03/30 08:02:46;;;;;;;;;;;15.20;79.80;;;14.21;65.66;99581.47;5030035;28;20019;-77
2023/03/30 08:05:17;;;;;;;;;;;15.00;81.70;;;14.17;66.82;99585.72;5045866;28;19983;-77
2023/03/30 08:07:57;;;;;;;;;;;14.90;82.80;;;14.14;67.33;99594.28;5044792;28;19965;-77
2023/03/30 08:10:30;;;;;;;;;;;14.90;83.10;;;14.12;67.91;99591.84;5045792;28;20020;-77
2023/03/30 08:12:58;;;;;;;;;;;14.90;83.90;;;14.16;68.97;99586.78;5027793;28;19936;-77
2023/03/30 08:15:25;;;;;;;;;;;14.90;85.10;;;14.18;68.93;99592.69;5046028;28;19952;-76
2023/03/30 08:17:52;;;;;;;;;;;14.90;84.90;;;14.18;68.12;99596.19;5028550;28;20237;-77
2023/03/30 08:20:19;;;;;;;;;;;14.90;84.10;;;14.21;68.74;99597.56;5030275;28;19925;-77
2023/03/30 08:22:47;;;;;;;;;;;14.90;84.90;;;14.17;67.54;99597.25;5029626;28;19933;-78
2023/03/30 08:25:14;;;;;;;;;;;14.90;83.50;;;14.15;67.21;99594.03;5029211;28;20362;-76
2023/03/30 08:27:41;;;;;;;;;;;14.90;83.50;;;14.13;66.18;99604.19;5029007;28;19937;-76
2023/03/30 08:30:12;;;;;;;;;;;14.90;82.30;;;14.15;66.42;99603.94;5029933;28;19936;-76
2023/03/30 08:32:38;;;;;;;;;;;14.90;82.60;;;14.14;65.62;99602.31;5030510;28;20306;-78
2023/03/30 08:35:07;;;;;;;;;;;15.10;81.90;;;14.16;65.35;99597.53;5028268;28;19936;-80
2023/03/30 08:37:34;;;;;;;;;;;14.90;81.70;;;14.20;66.39;99595.94;5029594;28;19926;-77
2023/03/30 08:40:01;;;;;;;;;;;14.90;82.60;;;14.22;65.67;99607.22;5029328;28;20312;-78
2023/03/30 08:42:46;;;;;;;;;;;15.00;81.70;;;14.23;64.70;99608.03;5030236;28;19929;-78
2023/03/30 08:45:14;;;;;;;;;;;15.00;81.10;;;14.25;64.31;99601.34;5029790;28;20321;-77
2023/03/30 08:47:43;;;;;;;;;;;15.00;80.60;;;14.24;64.08;99597.03;5028174;28;19928;-77
2023/03/30 08:50:15;;;;;;;;;;;15.00;80.50;;;14.25;64.15;99609.41;5029328;28;19933;-77
2023/03/30 08:52:42;;;;;;;;;;;15.00;80.40;;;14.28;63.86;99611.56;5030104;28;19961;-77
2023/03/30 08:55:20;;;;;;;;;;;15.00;80.20;;;14.36;63.33;99600.34;5028595;28;19933;-76
2023/03/30 08:57:51;;;;;;;;;;;15.10;79.80;;;14.40;62.68;99609.50;5020202;28;19925;-76
2023/03/30 09:00:28;;;;;;;;;;;15.20;79.00;;;14.55;63.29;99611.53;5043923;28;20420;-76
2023/03/30 09:03:01;;;;;;;;;;;15.30;79.80;;;14.68;62.38;99588.78;5028803;28;20404;-76
2023/03/30 09:05:30;;;;;;;;;;;15.40;78.60;;;14.77;61.99;99597.16;5029672;28;19929;-78
2023/03/30 09:08:04;;;;;;;;;;;15.50;78.30;;;14.80;61.62;99605.50;5036190;28;20286;-77
2023/03/30 09:10:37;;;;;;;;;;;15.60;77.80;;;14.80;60.62;99604.69;5029207;28;20316;-77
2023/03/30 09:13:05;;;;;;;;;;;15.50;76.70;;;14.82;60.48;99608.72;5028165;28;19925;-78
2023/03/30 09:15:36;;;;;;;;;;;15.60;76.60;;;14.80;60.63;99610.06;5029427;28;19929;-76
2023/03/30 09:18:07;;;;;;;;;;;15.60;76.80;;;14.78;60.40;99615.66;5027850;28;20027;-76
2023/03/30 09:20:36;;;;;;;;;;;15.60;76.20;;;14.78;60.67;99618.34;5029427;28;20016;-77
2023/03/30 09:23:04;;;;;;;;;;;15.60;77.20;;;14.83;61.30;99623.75;5010051;28;20669;-77
2023/03/30 09:25:35;;;;;;;;;;;15.60;77.40;;;14.85;60.59;99634.25;5009524;28;19929;-76
2023/03/30 09:28:08;;;;;;;;;;;15.60;76.50;;;14.85;60.17;99624.31;5027424;28;20059;-80
2023/03/30 09:30:40;;;;;;;;;;;15.60;75.90;;;14.82;60.19;99627.50;5029013;28;20419;-78
2023/03/30 09:33:20;;;;;;;;;;;15.60;76.00;;;14.78;59.34;99637.13;5029149;28;19929;-77
2023/03/30 09:36:03;;;;;;;;;;;15.60;75.40;;;14.77;59.75;99621.31;5029054;28;19929;-78
2023/03/30 09:38:31;;;;;;;;;;;15.50;75.60;;;14.76;59.10;99617.00;5025850;28;20477;-77
2023/03/30 09:41:11;;;;;;;;;;;15.60;75.50;;;14.73;59.15;99631.75;5029333;28;19929;-76
2023/03/30 09:43:42;;;;;;;;;;;15.50;75.10;;;14.67;58.01;99627.41;5029253;28;19955;-76
2023/03/30 09:46:11;;;;;;;;;;;15.40;74.50;;;14.65;58.65;99629.56;5028401;28;20375;-76
2023/03/30 09:48:40;;;;;;;;;;;15.40;74.90;;;14.61;58.57;99628.47;5029994;28;20035;-90
2023/03/30 09:51:22;;;;;;;;;;;15.40;74.30;;;14.62;59.36;99638.94;5033236;28;19957;-81
2023/03/30 09:53:50;;;;;;;;;;;15.40;75.40;;;14.61;58.97;99641.88;5022960;28;19940;-79
2023/03/30 09:56:21;;;;;;;;;;;15.60;75.10;;;14.60;59.03;99637.59;5012423;28;19955;-79
2023/03/30 09:58:48;;;;;;;;;;;15.40;74.50;;;14.59;59.20;99647.50;5031768;28;20019;-78
2023/03/30 10:01:18;;;;;;;;;;;15.40;75.60;;;14.60;59.55;99640.25;5032303;28;19929;-78
2023/03/30 10:04:05;;;;;;;;;;;15.40;75.40;;;14.59;58.92;99649.34;5032280;28;19925;-80
2023/03/30 10:06:34;;;;;;;;;;;15.40;75.10;;;14.59;58.93;99665.47;5030301;28;19965;-78
2023/03/30 10:09:05;;;;;;;;;;;15.40;75.20;;;14.55;59.26;99675.13;5031714;28;19980;-79
2023/03/30 10:11:36;;;;;;;;;;;15.40;75.40;;;14.50;60.22;99680.44;5033087;28;19960;-78
2023/03/30 10:14:06;;;;;;;;;;;15.30;76.00;;;14.42;61.03;99679.81;5030070;28;19990;-80
2023/03/30 10:16:35;;;;;;;;;;;15.20;77.20;;;14.36;62.43;99675.47;5029298;28;19929;-81
2023/03/30 10:19:03;;;;;;;;;;;15.10;78.70;;;14.32;63.15;99674.34;5031201;28;20010;-79
2023/03/30 10:21:32;;;;;;;;;;;15.10;79.60;;;14.28;63.05;99681.28;5032474;28;19929;-81
2023/03/30 10:24:02;;;;;;;;;;;15.00;79.40;;;14.26;63.22;99686.09;5032517;28;19928;-80
2023/03/30 10:26:30;;;;;;;;;;;14.90;79.60;;;14.20;62.95;99678.25;5032086;28;19929;-80
2023/03/30 10:29:03;;;;;;;;;;;14.90;79.60;;;14.16;62.97;99686.03;5029502;28;19929;-80
2023/03/30 10:31:31;;;;;;;;;;;14.90;79.60;;;14.14;62.80;99672.84;5045204;23;20468;-84
2023/03/30 10:34:01;;;;;;;;;;;14.80;79.30;;;14.11;62.81;99691.34;5052325;28;19933;-86
2023/03/30 10:36:30;;;;;;;;;;;14.80;79.30;;;14.07;62.82;99687.53;5050823;28;19966;-89
2023/03/30 10:39:03;;;;;;;;;;;14.80;79.50;;;14.01;62.63;99677.81;5050284;28;19929;-80
2023/03/30 10:41:31;;;;;;;;;;;14.80;79.20;;;14.02;63.18;99700.88;5055960;28;20419;-83
2023/03/30 10:44:05;;;;;;;;;;;14.70;79.60;;;14.01;62.87;99696.59;5045437;28;19958;-88
2023/03/30 10:46:31;;;;;;;;;;;14.70;79.50;;;13.99;63.41;99696.03;5059214;28;20309;-79
2023/03/30 10:49:12;;;;;;;;;;;14.70;79.90;;;14.00;63.10;99681.56;5044619;28;19933;-82
2023/03/30 10:51:47;;;;;;;;;;;14.70;79.70;;;14.01;62.54;99688.56;5053151;28;20002;-82
2023/03/30 10:54:20;;;;;;;;;;;14.70;79.20;;;14.06;63.32;99686.72;5059052;28;19925;-82
2023/03/30 10:56:51;;;;;;;;;;;14.80;80.00;;;14.14;63.49;99709.56;5058111;28;19936;-82
2023/03/30 10:59:32;;;;;;;;;;;14.80;79.90;;;14.26;64.18;99691.47;5049354;28;20567;-82
2023/03/30 11:02:21;;;;;;;;;;;15.00;80.70;;;14.40;63.27;99681.13;5042846;28;19944;-81
2023/03/30 11:26:37;;;;;;;;;;;15.50;79.80;;;14.82;62.80;99699.19;5041131;28;19931;-78
2023/03/30 11:29:23;;;;;;;;;;;15.50;79.00;;;14.86;64.02;99693.03;5061072;28;20022;-76
2023/03/30 11:39:14;;;;;;;;;;;15.80;77.80;;;15.09;61.25;99685.69;4874066;29;20422;-76
2023/03/30 11:41:47;;;;;;;;;;;15.90;77.70;;;15.10;61.26;99689.97;4873395;28;19934;-74
2023/03/30 11:44:14;;;;;;;;;;;15.90;77.50;;;15.10;60.71;99695.34;4909325;28;19931;-78
2023/03/30 11:46:47;;;;;;;;;;;15.90;76.70;;;15.07;60.25;99687.78;4952876;28;19926;-76
2023/03/30 11:49:33;;;;;;;;;;;15.80;76.10;;;15.03;60.55;99689.38;4849778;29;20000;-77
2023/03/30 11:52:08;;;;;;;;;;;15.80;76.50;;;15.04;60.97;99689.13;4861656;29;20053;-77
2023/03/30 11:54:59;;;;;;;;;;;15.80;76.70;;;14.98;59.22;99681.28;4873987;29;19979;-76
2023/03/30 11:57:33;;;;;;;;;;;15.80;75.20;;;14.92;59.41;99683.94;4861078;28;19987;-78
2023/03/30 12:00:17;;;;;;;;;;;15.70;75.20;;;14.91;59.37;99679.66;4856000;29;19938;-76
2023/03/30 12:02:48;;;;;;;;;;;15.70;75.60;;;14.91;60.08;99679.66;4934604;28;20303;-77
2023/03/30 12:05:21;;;;;;;;;;;15.70;75.90;;;14.97;61.25;99682.38;4855793;29;20486;-78
2023/03/30 12:07:53;;;;;;;;;;;15.70;77.40;;;14.99;59.99;99669.50;4855552;29;19936;-77
2023/03/30 12:10:24;;;;;;;;;;;15.80;75.70;;;15.05;59.75;99673.84;4854973;29;19968;-79
2023/03/30 12:12:54;;;;;;;;;;;15.80;75.40;;;15.06;59.47;99665.50;4855716;29;20031;-77
2023/03/30 12:15:34;;;;;;;;;;;15.80;75.20;;;15.05;59.05;99677.31;4855533;29;20012;-79
2023/03/30 12:18:05;;;;;;;;;;;15.80;74.90;;;15.03;59.04;99684.00;4855370;29;20388;-78
2023/03/30 12:20:39;;;;;;;;;;;15.80;74.90;;;15.04;59.35;99670.34;4855689;29;19955;-75